createdAt,value
2022-11-13T00:01:20.395Z,163.57
2022-11-13T00:03:47.672Z,158.32
2022-11-13T00:06:17.067Z,154.82
2022-11-13T00:08:45.064Z,167.63
2022-11-13T00:11:18.567Z,158.32
2022-11-13T00:13:46.800Z,165.40
2022-11-13T00:16:20.348Z,165.65
2022-11-13T00:18:48.351Z,234.95
2022-11-13T00:21:22.922Z,150.10
2022-11-13T00:23:51.712Z,151.00
2022-11-13T00:26:31.141Z,151.63
2022-11-13T00:29:03.227Z,147.70
2022-11-13T00:31:30.900Z,165.10
2022-11-13T00:36:47.965Z,153.43
2022-11-13T00:39:15.084Z,145.55
2022-11-13T00:41:42.969Z,163.82
2022-11-13T00:44:10.031Z,154.05
2022-11-13T00:46:37.026Z,166.82
2022-11-13T00:49:04.878Z,148.35
2022-11-13T00:51:32.338Z,147.95
2022-11-13T00:53:59.493Z,156.82
2022-11-13T00:56:26.926Z,155.85
2022-11-13T00:58:53.947Z,153.23
2022-11-13T01:01:21.587Z,167.57
2022-11-13T01:03:49.255Z,164.13
2022-11-13T01:06:25.871Z,154.70
2022-11-13T01:08:59.847Z,156.23
2022-11-13T01:11:30.797Z,155.57
2022-11-13T01:13:58.644Z,149.50
2022-11-13T01:16:28.172Z,143.57
2022-11-13T01:18:56.528Z,153.48
2022-11-13T01:21:27.536Z,150.10
2022-11-13T01:23:56.376Z,150.55
2022-11-13T01:26:28.518Z,144.50
2022-11-13T01:28:57.405Z,132.07
2022-11-13T01:31:28.496Z,150.30
2022-11-13T01:33:56.918Z,133.35
2022-11-13T01:36:27.919Z,137.27
2022-11-13T01:38:55.737Z,128.90
2022-11-13T01:41:31.249Z,146.70
2022-11-13T01:44:00.771Z,128.10
2022-11-13T01:46:35.160Z,131.43
2022-11-13T01:49:11.247Z,135.13
2022-11-13T01:52:00.395Z,141.38
2022-11-13T01:54:37.809Z,139.38
2022-11-13T01:57:05.712Z,138.05
2022-11-13T01:59:40.440Z,138.55
2022-11-13T02:02:08.063Z,130.88
2022-11-13T02:04:35.485Z,147.55
2022-11-13T02:07:08.461Z,144.98
2022-11-13T02:09:50.957Z,138.85
2022-11-13T02:12:30.921Z,143.07
2022-11-13T02:15:00.202Z,139.73
2022-11-13T02:17:52.828Z,140.30
2022-11-13T02:20:50.218Z,153.20
2022-11-13T02:23:49.913Z,154.15
2022-11-13T02:26:20.545Z,161.23
2022-11-13T02:28:47.997Z,159.45
2022-11-13T02:31:15.377Z,152.23
2022-11-13T02:33:42.529Z,155.43
2022-11-13T02:36:12.279Z,153.90
2022-11-13T02:38:41.525Z,142.00
2022-11-13T02:41:08.648Z,143.90
2022-11-13T02:43:36.126Z,141.68
2022-11-13T02:46:03.296Z,191.48
2022-11-13T02:48:30.775Z,144.93
2022-11-13T02:50:58.220Z,134.90
2022-11-13T02:53:25.250Z,140.95
2022-11-13T02:55:52.345Z,142.50
2022-11-13T02:58:19.830Z,151.48
2022-11-13T03:00:46.914Z,141.25
2022-11-13T03:03:14.090Z,138.77
2022-11-13T03:05:41.733Z,135.07
2022-11-13T03:08:09.249Z,139.55
2022-11-13T03:10:37.083Z,152.93
2022-11-13T03:13:04.170Z,137.38
2022-11-13T03:15:31.601Z,144.43
2022-11-13T03:18:03.253Z,138.35
2022-11-13T03:20:30.353Z,130.25
2022-11-13T03:22:57.522Z,129.05
2022-11-13T03:25:24.983Z,128.40
2022-11-13T03:27:52.083Z,149.45
2022-11-13T03:30:19.793Z,144.80
2022-11-13T03:32:46.945Z,130.52
2022-11-13T03:35:14.439Z,140.07
2022-11-13T03:37:41.490Z,142.07
2022-11-13T03:40:09.375Z,134.68
2022-11-13T03:42:36.796Z,160.38
2022-11-13T03:45:04.307Z,130.35
2022-11-13T03:47:31.725Z,131.25
2022-11-13T03:49:59.175Z,126.40
2022-11-13T03:52:26.276Z,139.27
2022-11-13T03:54:53.718Z,133.95
2022-11-13T03:57:20.766Z,138.57
2022-11-13T03:59:47.948Z,136.48
2022-11-13T04:02:15.171Z,142.98
2022-11-13T04:04:42.257Z,140.98
2022-11-13T04:07:09.739Z,148.43
2022-11-13T04:09:37.211Z,145.98
2022-11-13T04:12:04.448Z,150.43
2022-11-13T04:14:32.615Z,154.35
2022-11-13T04:16:59.639Z,142.85
2022-11-13T04:19:27.132Z,137.55
2022-11-13T04:21:54.587Z,145.60
2022-11-13T04:24:22.008Z,145.93
2022-11-13T04:26:49.441Z,145.80
2022-11-13T04:29:16.644Z,157.23
2022-11-13T04:31:43.770Z,164.48
2022-11-13T04:34:10.943Z,154.05
2022-11-13T04:36:38.102Z,149.25
2022-11-13T04:39:05.559Z,134.23
2022-11-13T04:41:55.169Z,138.30
2022-11-13T04:44:22.676Z,151.35
2022-11-13T04:46:49.716Z,147.25
2022-11-13T04:49:16.770Z,142.25
2022-11-13T04:51:43.883Z,142.05
2022-11-13T04:54:10.987Z,146.20
2022-11-13T04:56:38.067Z,151.90
2022-11-13T04:59:05.121Z,145.70
2022-11-13T05:01:32.209Z,146.15
2022-11-13T05:03:59.206Z,139.00
2022-11-13T05:06:26.280Z,134.93
2022-11-13T05:08:53.293Z,143.63
2022-11-13T05:11:20.390Z,147.75
2022-11-13T05:13:47.735Z,141.70
2022-11-13T05:16:15.559Z,143.23
2022-11-13T05:18:42.948Z,146.02
2022-11-13T05:21:10.544Z,146.68
2022-11-13T05:23:37.616Z,144.32
2022-11-13T05:26:12.254Z,134.23
2022-11-13T05:28:40.210Z,151.88
2022-11-13T05:31:14.130Z,136.18
2022-11-13T05:33:42.625Z,135.70
2022-11-13T05:36:15.090Z,140.55
2022-11-13T05:38:43.003Z,133.60
2022-11-13T05:41:19.220Z,126.70
2022-11-13T05:43:47.171Z,139.80
2022-11-13T05:46:19.078Z,156.82
2022-11-13T05:48:47.587Z,132.93
2022-11-13T05:51:18.294Z,133.82
2022-11-13T05:53:45.745Z,136.27
2022-11-13T05:56:19.756Z,140.55
2022-11-13T05:58:47.944Z,137.23
2022-11-13T06:01:25.549Z,133.25
2022-11-13T06:04:14.363Z,131.05
2022-11-13T06:06:58.677Z,150.45
2022-11-13T06:09:34.131Z,132.52
2022-11-13T06:12:01.222Z,143.55
2022-11-13T06:14:28.373Z,167.20
2022-11-13T06:16:55.434Z,132.02
2022-11-13T06:19:23.043Z,128.70
2022-11-13T06:21:50.103Z,129.02
2022-11-13T06:24:17.188Z,121.85
2022-11-13T06:26:44.681Z,144.80
2022-11-13T06:29:13.093Z,137.82
2022-11-13T06:31:40.822Z,129.82
2022-11-13T06:34:08.304Z,143.30
2022-11-13T06:36:37.372Z,121.00
2022-11-13T06:39:09.508Z,126.30
2022-11-13T06:41:39.577Z,133.15
2022-11-13T06:44:06.807Z,141.10
2022-11-13T06:46:34.559Z,129.50
2022-11-13T06:49:01.619Z,127.22
2022-11-13T06:51:31.533Z,122.65
2022-11-13T06:53:59.049Z,133.25
2022-11-13T06:56:26.827Z,133.85
2022-11-13T06:58:56.828Z,144.38
2022-11-13T07:01:27.111Z,135.63
2022-11-13T07:03:55.099Z,132.88
2022-11-13T07:06:24.295Z,150.30
2022-11-13T07:08:52.288Z,143.18
2022-11-13T07:11:22.482Z,153.63
2022-11-13T07:13:50.550Z,139.82
2022-11-13T07:16:18.642Z,148.48
2022-11-13T07:18:53.484Z,149.18
2022-11-13T07:21:22.360Z,137.75
2022-11-13T07:23:50.469Z,142.93
2022-11-13T07:26:18.090Z,135.70
2022-11-13T07:28:45.790Z,141.52
2022-11-13T07:31:14.912Z,154.38
2022-11-13T07:33:42.429Z,156.68
2022-11-13T07:36:10.685Z,129.48
2022-11-13T07:38:38.552Z,128.40
2022-11-13T07:41:06.520Z,134.82
2022-11-13T07:43:34.109Z,129.35
2022-11-13T07:46:02.035Z,138.57
2022-11-13T07:48:30.121Z,146.57
2022-11-13T07:51:01.782Z,128.77
2022-11-13T07:53:28.941Z,121.35
2022-11-13T07:55:56.269Z,124.15
2022-11-13T07:58:23.426Z,146.75
2022-11-13T08:00:50.997Z,142.20
2022-11-13T08:03:18.568Z,131.07
2022-11-13T08:05:45.709Z,123.57
2022-11-13T08:08:14.852Z,137.18
2022-11-13T08:10:42.698Z,124.57
2022-11-13T08:13:11.567Z,134.82
2022-11-13T08:15:39.581Z,153.57
2022-11-13T08:18:07.252Z,139.80
2022-11-13T08:20:35.009Z,123.68
2022-11-13T08:23:04.778Z,140.35
2022-11-13T08:25:36.129Z,126.43
2022-11-13T08:28:04.209Z,138.70
2022-11-13T08:30:32.832Z,155.75
2022-11-13T08:32:59.842Z,151.20
2022-11-13T08:35:29.626Z,126.82
2022-11-13T08:38:08.821Z,123.47
2022-11-13T08:40:36.470Z,130.82
2022-11-13T08:43:05.028Z,124.88
2022-11-13T08:45:33.010Z,126.93
2022-11-13T08:48:04.664Z,131.02
2022-11-13T08:50:33.973Z,127.63
2022-11-13T08:53:01.923Z,130.85
2022-11-13T08:55:29.668Z,130.13
2022-11-13T08:58:03.454Z,137.27
2022-11-13T09:00:32.747Z,130.50
2022-11-13T09:03:01.444Z,136.10
2022-11-13T09:05:28.815Z,132.70
2022-11-13T09:08:01.771Z,149.30
2022-11-13T09:10:29.569Z,169.00
2022-11-13T09:13:04.831Z,132.40
2022-11-13T09:15:32.926Z,132.32
2022-11-13T09:18:02.816Z,134.70
2022-11-13T09:20:32.406Z,137.27
2022-11-13T09:23:09.422Z,135.48
2022-11-13T09:25:38.183Z,139.75
2022-11-13T09:28:06.793Z,141.25
2022-11-13T09:30:34.004Z,137.20
2022-11-13T09:33:02.484Z,140.70
2022-11-13T09:35:34.950Z,141.27
2022-11-13T09:38:13.553Z,161.95
2022-11-13T09:41:26.392Z,183.63
2022-11-13T09:43:59.971Z,156.93
2022-11-13T09:46:51.921Z,144.27
2022-11-13T09:49:33.598Z,180.18
2022-11-13T09:52:14.295Z,141.82
2022-11-13T09:54:41.753Z,154.95
2022-11-13T09:57:59.456Z,160.80
2022-11-13T10:00:28.258Z,153.88
2022-11-13T10:03:39.501Z,152.57
2022-11-13T10:06:23.781Z,147.02
2022-11-13T10:08:58.798Z,150.43
2022-11-13T10:11:39.451Z,146.63
2022-11-13T10:14:24.451Z,160.05
2022-11-13T10:17:02.857Z,157.38
2022-11-13T10:19:44.824Z,165.63
2022-11-13T10:22:47.353Z,166.68
2022-11-13T10:25:29.308Z,161.85
2022-11-13T10:28:07.476Z,159.18
2022-11-13T10:30:43.275Z,175.75
2022-11-13T10:33:18.492Z,164.20
2022-11-13T10:36:22.462Z,257.02
2022-11-13T10:39:00.369Z,169.93
2022-11-13T10:41:27.383Z,172.02
2022-11-13T10:44:32.805Z,182.40
2022-11-13T10:47:42.540Z,176.38
2022-11-13T10:50:20.496Z,176.68
2022-11-13T10:52:50.829Z,181.38
2022-11-13T10:55:50.772Z,225.77
2022-11-13T10:58:20.099Z,261.63
2022-11-13T11:00:50.841Z,209.80
2022-11-13T11:03:24.408Z,214.23
2022-11-13T11:06:04.681Z,221.88
2022-11-13T11:08:35.346Z,215.20
2022-11-13T11:11:27.717Z,215.32
2022-11-13T11:14:28.904Z,216.88
2022-11-13T11:16:58.160Z,210.68
2022-11-13T11:19:29.421Z,215.75
2022-11-13T11:22:16.857Z,212.38
2022-11-13T11:25:23.848Z,214.65
2022-11-13T11:28:05.462Z,208.70
2022-11-13T11:30:51.374Z,214.75
2022-11-13T11:33:34.317Z,262.83
2022-11-13T11:36:13.589Z,216.88
2022-11-13T11:38:44.792Z,229.32
2022-11-13T11:41:18.585Z,222.40
2022-11-13T11:44:22.397Z,230.90
2022-11-13T11:46:50.210Z,219.82
2022-11-13T11:49:17.642Z,225.57
2022-11-13T11:51:49.666Z,231.48
2022-11-13T11:54:22.436Z,228.82
2022-11-13T11:56:53.957Z,242.40
2022-11-13T12:00:03.212Z,248.10
2022-11-13T12:03:18.379Z,252.98
2022-11-13T12:06:45.573Z,247.20
2022-11-13T12:09:33.713Z,252.55
2022-11-13T12:12:50.860Z,249.95
2022-11-13T12:15:54.287Z,252.38
2022-11-13T12:18:45.785Z,285.15
2022-11-13T12:21:24.999Z,289.90
2022-11-13T12:24:35.802Z,294.48
2022-11-13T12:27:20.889Z,292.45
2022-11-13T12:30:13.875Z,301.98
2022-11-13T12:32:46.950Z,301.63
2022-11-13T12:35:16.420Z,313.42
2022-11-13T12:38:07.711Z,326.98
2022-11-13T12:40:56.039Z,316.08
2022-11-13T12:43:43.746Z,324.75
2022-11-13T12:46:12.967Z,323.40
2022-11-13T12:48:43.847Z,331.77
2022-11-13T12:51:17.335Z,340.63
2022-11-13T12:53:54.178Z,348.42
2022-11-13T12:56:29.565Z,352.52
2022-11-13T12:59:30.559Z,355.83
2022-11-13T13:02:07.725Z,334.65
2022-11-13T13:04:54.715Z,340.20
2022-11-13T13:07:40.499Z,343.95
2022-11-13T13:10:35.168Z,348.60
2022-11-13T13:13:31.384Z,348.60
2022-11-13T13:16:04.956Z,347.88
2022-11-13T13:18:41.682Z,346.95
2022-11-13T13:21:15.838Z,347.42
2022-11-13T13:23:49.899Z,342.92
2022-11-13T13:26:29.076Z,353.27
2022-11-13T13:29:22.532Z,338.58
2022-11-13T13:32:15.512Z,351.90
2022-11-13T13:35:09.715Z,338.33
2022-11-13T13:38:05.302Z,330.75
2022-11-13T13:41:13.602Z,334.67
2022-11-13T13:43:51.002Z,346.58
2022-11-13T13:46:21.981Z,342.70
2022-11-13T13:48:53.381Z,350.70
2022-11-13T13:51:41.366Z,343.02
2022-11-13T13:54:10.258Z,344.63
2022-11-13T13:56:43.469Z,336.73
2022-11-13T13:59:46.271Z,327.05
2022-11-13T14:02:18.329Z,337.02
2022-11-13T14:04:48.767Z,336.88
2022-11-13T14:07:35.989Z,331.85
2022-11-13T14:10:15.036Z,340.67
2022-11-13T14:12:47.033Z,333.40
2022-11-13T14:15:34.521Z,330.75
2022-11-13T14:18:14.883Z,326.95
2022-11-13T14:20:56.145Z,371.83
2022-11-13T14:23:57.562Z,326.77
2022-11-13T14:26:24.848Z,343.17
2022-11-13T14:29:01.557Z,340.95
2022-11-13T14:31:34.751Z,329.15
2022-11-13T14:34:21.929Z,351.08
2022-11-13T14:37:02.191Z,335.42
2022-11-13T14:39:32.766Z,341.65
2022-11-13T14:42:00.893Z,329.08
2022-11-13T14:44:35.352Z,329.73
2022-11-13T14:47:08.676Z,338.55
2022-11-13T14:49:37.956Z,344.73
2022-11-13T14:52:07.298Z,331.95
2022-11-13T14:55:07.990Z,333.70
2022-11-13T14:57:24.745Z,329.20
2022-11-13T14:59:52.002Z,334.58
2022-11-13T15:02:20.385Z,332.48
2022-11-13T15:04:47.875Z,333.50
2022-11-13T15:07:29.576Z,322.00
2022-11-13T15:09:57.991Z,321.83
2022-11-13T15:12:25.344Z,321.90
2022-11-13T15:14:53.217Z,324.45
2022-11-13T15:17:23.486Z,305.23
2022-11-13T15:19:54.167Z,321.67
2022-11-13T15:22:29.033Z,316.35
2022-11-13T15:24:56.233Z,311.23
2022-11-13T15:27:26.394Z,312.75
2022-11-13T15:29:53.429Z,315.08
2022-11-13T15:32:20.439Z,330.45
2022-11-13T15:34:47.611Z,311.98
2022-11-13T15:37:17.171Z,313.10
2022-11-13T15:39:44.487Z,311.77
2022-11-13T15:42:16.192Z,318.80
2022-11-13T15:44:43.380Z,324.88
2022-11-13T15:47:38.748Z,317.38
2022-11-13T15:50:13.981Z,321.67
2022-11-13T15:52:46.934Z,327.05
2022-11-13T15:55:30.253Z,316.98
2022-11-13T15:57:58.414Z,312.13
2022-11-13T16:00:28.941Z,312.15
2022-11-13T16:03:00.790Z,310.25
2022-11-13T16:05:29.591Z,309.73
2022-11-13T16:07:57.688Z,300.55
2022-11-13T16:10:25.874Z,308.70
2022-11-13T16:12:53.755Z,311.02
2022-11-13T16:15:21.764Z,309.63
2022-11-13T16:17:55.425Z,307.90
2022-11-13T16:20:22.831Z,289.33
2022-11-13T16:22:50.293Z,287.40
2022-11-13T16:25:21.133Z,289.33
2022-11-13T16:27:48.455Z,284.13
2022-11-13T16:30:21.625Z,295.85
2022-11-13T16:32:49.125Z,272.13
2022-11-13T16:35:18.429Z,277.00
2022-11-13T16:37:46.056Z,255.07
2022-11-13T16:40:22.024Z,256.83
2022-11-13T16:42:49.209Z,255.82
2022-11-13T16:45:16.719Z,250.38
2022-11-13T16:47:45.289Z,256.60
2022-11-13T16:50:24.668Z,243.13
2022-11-13T16:52:52.625Z,234.95
2022-11-13T16:55:19.900Z,233.30
2022-11-13T16:57:47.281Z,236.63
2022-11-13T17:00:17.545Z,233.05
2022-11-13T17:02:44.748Z,225.57
2022-11-13T17:05:14.212Z,219.63
2022-11-13T17:07:41.976Z,206.90
2022-11-13T17:10:36.090Z,216.30
2022-11-13T17:13:03.356Z,215.93
2022-11-13T17:15:31.833Z,205.55
2022-11-13T17:17:59.692Z,213.10
2022-11-13T17:20:27.223Z,208.38
2022-11-13T17:22:54.662Z,203.82
2022-11-13T17:25:23.398Z,207.98
2022-11-13T17:27:50.683Z,208.32
2022-11-13T17:30:18.283Z,205.13
2022-11-13T17:32:45.355Z,195.05
2022-11-13T17:35:13.297Z,221.65
2022-11-13T17:37:40.657Z,207.95
2022-11-13T17:40:09.676Z,189.13
2022-11-13T17:42:36.738Z,195.75
2022-11-13T17:45:04.325Z,189.02
2022-11-13T17:47:34.288Z,205.43
2022-11-13T17:50:07.046Z,196.68
2022-11-13T17:52:34.869Z,194.40
2022-11-13T17:55:06.181Z,190.25
2022-11-13T17:57:33.796Z,185.52
2022-11-13T18:00:00.877Z,196.60
2022-11-13T18:02:28.240Z,184.55
2022-11-13T18:04:58.364Z,199.07
2022-11-13T18:07:25.918Z,182.55
2022-11-13T18:09:53.095Z,186.98
2022-11-13T18:12:22.794Z,181.68
2022-11-13T18:14:52.572Z,186.85
2022-11-13T18:17:21.063Z,197.65
2022-11-13T18:19:49.108Z,196.95
2022-11-13T18:22:16.799Z,181.45
2022-11-13T18:24:44.534Z,199.00
2022-11-13T18:27:11.649Z,183.73
2022-11-13T18:29:38.721Z,172.18
2022-11-13T18:32:05.835Z,183.20
2022-11-13T18:34:33.255Z,179.45
2022-11-13T18:37:00.515Z,185.77
2022-11-13T18:39:27.761Z,178.77
2022-11-13T18:41:59.294Z,184.60
2022-11-13T18:44:26.477Z,176.90
2022-11-13T18:46:54.137Z,190.57
2022-11-13T18:49:21.219Z,189.38
2022-11-13T18:51:48.247Z,177.95
2022-11-13T18:54:15.510Z,170.25
2022-11-13T18:56:42.658Z,172.20
2022-11-13T18:59:09.976Z,170.82
2022-11-13T19:01:39.804Z,183.05
2022-11-13T19:04:25.253Z,171.93
2022-11-13T19:06:52.518Z,199.80
2022-11-13T19:09:19.978Z,175.30
2022-11-13T19:11:47.535Z,171.98
2022-11-13T19:14:17.164Z,174.75
2022-11-13T19:16:44.416Z,168.85
2022-11-13T19:19:23.330Z,173.15
2022-11-13T19:21:52.165Z,195.25
2022-11-13T19:24:19.260Z,186.18
2022-11-13T19:26:46.331Z,158.43
2022-11-13T19:29:13.891Z,182.85
2022-11-13T19:31:41.942Z,145.15
2022-11-13T19:34:10.307Z,139.65
2022-11-13T19:36:37.603Z,161.68
2022-11-13T19:39:05.331Z,163.15
2022-11-13T19:41:32.407Z,192.25
2022-11-13T19:44:01.229Z,157.15
2022-11-13T19:46:34.292Z,148.50
2022-11-13T19:49:01.352Z,133.20
2022-11-13T19:51:28.376Z,151.77
2022-11-13T19:53:59.794Z,152.20
2022-11-13T19:56:28.744Z,142.75
2022-11-13T19:58:56.897Z,137.32
2022-11-13T20:01:27.087Z,142.70
2022-11-13T20:04:02.500Z,147.10
2022-11-13T20:06:32.006Z,149.43
2022-11-13T20:09:00.414Z,154.13
2022-11-13T20:11:28.016Z,130.63
2022-11-13T20:13:57.024Z,157.45
2022-11-13T20:16:24.717Z,136.43
2022-11-13T20:18:52.599Z,165.68
2022-11-13T20:21:27.615Z,177.43
2022-11-13T20:23:57.975Z,163.40
2022-11-13T20:26:25.356Z,141.18
2022-11-13T20:28:52.405Z,135.07
2022-11-13T20:31:22.784Z,141.02
2022-11-13T20:34:03.017Z,131.20
2022-11-13T20:36:29.948Z,137.65
2022-11-13T20:39:20.652Z,148.32
2022-11-13T20:41:47.655Z,138.60
2022-11-13T20:44:15.817Z,155.30
2022-11-13T20:46:43.098Z,160.18
2022-11-13T20:49:10.004Z,160.65
2022-11-13T20:51:36.973Z,150.93
2022-11-13T20:54:04.031Z,167.68
2022-11-13T20:56:31.011Z,163.02
2022-11-13T20:58:58.037Z,160.40
2022-11-13T21:01:26.407Z,154.98
2022-11-13T21:03:53.454Z,160.95
2022-11-13T21:06:24.751Z,151.00
2022-11-13T21:08:55.177Z,161.55
2022-11-13T21:11:25.485Z,172.98
2022-11-13T21:13:55.270Z,175.40
2022-11-13T21:16:22.758Z,173.43
2022-11-13T21:18:50.111Z,180.10
2022-11-13T21:21:21.967Z,152.00
2022-11-13T21:23:49.638Z,167.20
2022-11-13T21:26:16.644Z,175.25
2022-11-13T21:28:44.567Z,175.35
2022-11-13T21:31:18.312Z,160.75
2022-11-13T21:33:47.315Z,170.20
2022-11-13T21:36:23.925Z,179.70
2022-11-13T21:38:53.024Z,173.88
2022-11-13T21:41:21.491Z,176.30
2022-11-13T21:43:55.691Z,172.55
2022-11-13T21:46:25.012Z,171.00
2022-11-13T21:49:02.548Z,164.77
2022-11-13T21:51:30.974Z,171.73
2022-11-13T21:53:58.505Z,166.32
2022-11-13T21:56:27.644Z,155.25
2022-11-13T21:58:55.868Z,189.50
2022-11-13T22:01:24.260Z,162.80
2022-11-13T22:03:51.749Z,176.35
2022-11-13T22:06:22.578Z,165.40
2022-11-13T22:09:04.738Z,172.40
2022-11-13T22:11:35.163Z,171.75
2022-11-13T22:14:03.032Z,170.52
2022-11-13T22:16:32.801Z,169.95
2022-11-13T22:19:03.691Z,171.98
2022-11-13T22:21:31.743Z,185.73
2022-11-13T22:23:59.966Z,168.98
2022-11-13T22:26:28.908Z,164.40
2022-11-13T22:28:56.850Z,166.90
2022-11-13T22:31:27.410Z,153.07
2022-11-13T22:33:55.616Z,171.55
2022-11-13T22:36:32.041Z,188.18
2022-11-13T22:38:59.768Z,166.90
2022-11-13T22:41:31.089Z,172.40
2022-11-13T22:44:08.348Z,176.32
2022-11-13T22:46:36.375Z,169.85
2022-11-13T22:49:05.532Z,178.25
2022-11-13T22:51:41.090Z,169.18
2022-11-13T22:54:12.619Z,171.35
2022-11-13T22:56:41.472Z,170.05
2022-11-13T22:59:11.354Z,170.10
2022-11-13T23:01:40.042Z,170.48
2022-11-13T23:04:11.867Z,160.82
2022-11-13T23:06:38.983Z,181.75
2022-11-13T23:09:06.984Z,173.68
2022-11-13T23:11:38.091Z,177.13
2022-11-13T23:14:11.178Z,175.07
2022-11-13T23:16:38.951Z,176.45
2022-11-13T23:19:06.087Z,164.48
2022-11-13T23:21:33.543Z,192.35
2022-11-13T23:24:00.693Z,173.65
2022-11-13T23:26:28.441Z,183.20
2022-11-13T23:28:56.262Z,174.13
2022-11-13T23:31:23.921Z,176.45
2022-11-13T23:33:50.837Z,172.85
2022-11-13T23:36:20.729Z,174.05
2022-11-13T23:38:48.254Z,194.30
2022-11-13T23:41:15.180Z,175.80
2022-11-13T23:46:29.151Z,177.43
2022-11-13T23:48:56.255Z,181.60
2022-11-13T23:51:23.227Z,176.43
2022-11-13T23:53:50.163Z,155.55
2022-11-13T23:56:17.276Z,184.07
2022-11-13T23:58:44.272Z,174.38
